Time;durP1;ratioP1;P1;durP2;ratioP2;P2;SDS_P1;SDS_P2;PMS_P1;PMS_P2;Temp;Humidity;BMP_temperature;BMP_pressure;BME280_temperature;BME280_humidity;BME280_pressure;Samples;Min_cycle;Max_cycle;Signal;HPM_P1;HPM_P2
2021/04/19 00:00:07;;;;;;;31.77;14.18;;;;;;;;;;5083251;28;32386;-71
2021/04/19 00:02:34;;;;;;;29.52;13.52;;;;;;;;;;5083769;28;33167;-72
2021/04/19 00:05:00;;;;;;;29.70;13.82;;;;;;;;;;5081773;28;31612;-74
2021/04/19 00:07:26;;;;;;;29.63;13.63;;;;;;;;;;5083390;28;32838;-72
2021/04/19 00:09:52;;;;;;;30.10;14.93;;;;;;;;;;5083283;28;32347;-75
2021/04/19 00:12:18;;;;;;;30.75;12.73;;;;;;;;;;5083784;28;32162;-75
2021/04/19 00:14:43;;;;;;;29.60;13.10;;;;;;;;;;5082898;28;31874;-74
2021/04/19 00:17:09;;;;;;;28.20;13.48;;;;;;;;;;5081484;28;32287;-75
2021/04/19 00:19:35;;;;;;;29.88;12.75;;;;;;;;;;5083117;28;32472;-74
2021/04/19 00:22:00;;;;;;;26.92;13.18;;;;;;;;;;5083223;28;32953;-74
2021/04/19 00:24:26;;;;;;;27.70;13.05;;;;;;;;;;5083206;28;31773;-73
2021/04/19 00:26:52;;;;;;;27.52;13.05;;;;;;;;;;5082866;28;32784;-72
2021/04/19 00:29:17;;;;;;;33.53;13.93;;;;;;;;;;5078951;28;32071;-74
2021/04/19 00:31:43;;;;;;;32.72;14.25;;;;;;;;;;5083053;28;33121;-72
2021/04/19 00:34:09;;;;;;;29.50;13.57;;;;;;;;;;5083133;28;32045;-74
2021/04/19 00:36:34;;;;;;;29.70;14.10;;;;;;;;;;5082231;28;32440;-75
2021/04/19 00:39:00;;;;;;;30.60;14.27;;;;;;;;;;5082992;28;32917;-73
2021/04/19 00:41:26;;;;;;;28.40;14.05;;;;;;;;;;5083074;28;32044;-73
2021/04/19 00:43:52;;;;;;;33.17;15.25;;;;;;;;;;5083298;28;31969;-72
2021/04/19 00:46:18;;;;;;;30.75;14.02;;;;;;;;;;5082449;28;33526;-73
2021/04/19 00:48:44;;;;;;;25.02;13.57;;;;;;;;;;5081275;28;30904;-73
2021/04/19 00:51:09;;;;;;;32.40;14.23;;;;;;;;;;5082642;28;31278;-75
2021/04/19 00:53:36;;;;;;;29.02;13.18;;;;;;;;;;5082822;28;32874;-72
2021/04/19 00:56:02;;;;;;;29.30;14.45;;;;;;;;;;5081199;28;31039;-72
2021/04/19 00:58:32;;;;;;;28.63;14.52;;;;;;;;;;5082228;28;32271;-72
2021/04/19 01:00:58;;;;;;;29.92;14.45;;;;;;;;;;5082297;28;32206;-72
2021/04/19 01:03:25;;;;;;;33.45;13.65;;;;;;;;;;5080330;28;30527;-72
2021/04/19 01:05:51;;;;;;;32.92;14.13;;;;;;;;;;5082359;28;32486;-72
2021/04/19 01:08:18;;;;;;;30.25;13.48;;;;;;;;;;5082822;28;32384;-72
2021/04/19 01:10:44;;;;;;;23.55;13.45;;;;;;;;;;5082475;28;32818;-72
2021/04/19 01:13:11;;;;;;;27.65;13.68;;;;;;;;;;5082876;28;32037;-72
2021/04/19 01:15:37;;;;;;;29.35;14.90;;;;;;;;;;5082412;28;33589;-72
2021/04/19 01:18:04;;;;;;;27.15;13.73;;;;;;;;;;5082175;28;32355;-72
2021/04/19 01:20:32;;;;;;;28.50;13.38;;;;;;;;;;5080762;28;31656;-72
2021/04/19 01:22:58;;;;;;;32.25;14.60;;;;;;;;;;5082092;28;32996;-72
2021/04/19 01:25:25;;;;;;;33.17;14.52;;;;;;;;;;5080391;28;32251;-72
2021/04/19 01:27:52;;;;;;;32.67;14.85;;;;;;;;;;5080305;28;31687;-72
2021/04/19 01:30:19;;;;;;;32.40;13.95;;;;;;;;;;5080348;28;31465;-72
2021/04/19 01:32:46;;;;;;;29.35;13.60;;;;;;;;;;5080530;28;32198;-72
2021/04/19 01:35:12;;;;;;;25.15;12.93;;;;;;;;;;5082531;28;32658;-72
2021/04/19 01:37:39;;;;;;;32.42;14.65;;;;;;;;;;5081109;28;31183;-76
2021/04/19 01:40:06;;;;;;;30.85;15.25;;;;;;;;;;5082991;28;32040;-76
2021/04/19 01:42:32;;;;;;;30.30;13.90;;;;;;;;;;5081167;28;31837;-76
2021/04/19 01:44:58;;;;;;;35.17;14.63;;;;;;;;;;5082534;28;32669;-77
2021/04/19 01:47:25;;;;;;;27.58;13.05;;;;;;;;;;5080912;28;31825;-73
2021/04/19 01:49:51;;;;;;;34.00;13.65;;;;;;;;;;5080838;28;30560;-75
2021/04/19 01:52:17;;;;;;;30.70;13.18;;;;;;;;;;5082800;28;31988;-75
2021/04/19 01:54:43;;;;;;;31.25;13.77;;;;;;;;;;5082425;28;33271;-76
2021/04/19 01:57:09;;;;;;;36.05;14.57;;;;;;;;;;5082304;28;32371;-74
2021/04/19 01:59:36;;;;;;;32.30;14.82;;;;;;;;;;5082084;28;32996;-74
2021/04/19 02:02:18;;;;;;;35.13;14.68;;;;;;;;;;5080451;28;31684;-75
2021/04/19 02:04:48;;;;;;;26.85;12.52;;;;;;;;;;5082343;28;32738;-75
2021/04/19 02:07:33;;;;;;;29.90;13.57;;;;;;;;;;5081693;28;32471;-74
2021/04/19 02:10:26;;;;;;;29.55;13.23;;;;;;;;;;5081694;28;32276;-75
2021/04/19 02:13:12;;;;;;;30.70;13.88;;;;;;;;;;5080885;28;32703;-74
2021/04/19 02:15:58;;;;;;;33.38;13.35;;;;;;;;;;5079457;28;32651;-76
2021/04/19 02:18:33;;;;;;;33.22;13.40;;;;;;;;;;5080616;28;33100;-70
2021/04/19 02:21:01;;;;;;;41.17;13.65;;;;;;;;;;5079933;28;30541;-70
2021/04/19 02:23:30;;;;;;;33.83;14.10;;;;;;;;;;5080688;28;32151;-71
2021/04/19 02:26:02;;;;;;;31.95;14.35;;;;;;;;;;5079164;28;32136;-71
2021/04/19 02:28:32;;;;;;;32.78;13.43;;;;;;;;;;5079659;28;30758;-71
2021/04/19 02:31:05;;;;;;;29.50;14.05;;;;;;;;;;5080222;28;31852;-71
2021/04/19 02:33:35;;;;;;;27.35;12.73;;;;;;;;;;5080342;28;32969;-71
2021/04/19 02:36:03;;;;;;;29.15;13.13;;;;;;;;;;5079199;28;31062;-70
2021/04/19 02:38:30;;;;;;;24.98;13.90;;;;;;;;;;5081170;28;32235;-71
2021/04/19 02:41:02;;;;;;;27.73;14.43;;;;;;;;;;5081478;28;32179;-71
2021/04/19 02:43:33;;;;;;;33.67;15.88;;;;;;;;;;5078782;28;32020;-71
2021/04/19 02:46:00;;;;;;;32.08;14.45;;;;;;;;;;5081112;28;33513;-71
2021/04/19 02:48:26;;;;;;;28.15;14.65;;;;;;;;;;5080125;28;33313;-70
2021/04/19 02:51:00;;;;;;;29.33;14.38;;;;;;;;;;5080250;28;32696;-71
2021/04/19 02:53:27;;;;;;;28.83;13.13;;;;;;;;;;5080650;28;33061;-70
2021/04/19 02:55:54;;;;;;;25.45;14.18;;;;;;;;;;5080598;28;33234;-71
2021/04/19 02:58:27;;;;;;;30.08;14.75;;;;;;;;;;5080614;28;32337;-72
2021/04/19 03:00:53;;;;;;;34.72;14.38;;;;;;;;;;5079558;28;31718;-71
2021/04/19 03:03:22;;;;;;;33.85;12.90;;;;;;;;;;5080849;28;32090;-72
2021/04/19 03:05:50;;;;;;;31.42;13.70;;;;;;;;;;5081290;28;31894;-71
2021/04/19 03:08:20;;;;;;;30.98;13.73;;;;;;;;;;5082205;28;30537;-71
2021/04/19 03:11:03;;;;;;;38.15;14.85;;;;;;;;;;5079055;28;30900;-71
2021/04/19 03:13:30;;;;;;;35.28;14.60;;;;;;;;;;5079428;28;30782;-71
2021/04/19 03:16:03;;;;;;;32.45;14.15;;;;;;;;;;5079818;28;31084;-71
2021/04/19 03:18:35;;;;;;;38.75;14.23;;;;;;;;;;5080194;28;32413;-71
2021/04/19 03:21:12;;;;;;;38.03;16.77;;;;;;;;;;5079054;28;32250;-72
2021/04/19 03:23:45;;;;;;;34.03;14.85;;;;;;;;;;5078818;28;31463;-71
2021/04/19 03:26:18;;;;;;;36.80;16.02;;;;;;;;;;5077723;28;31078;-72
2021/04/19 03:28:45;;;;;;;39.58;16.08;;;;;;;;;;5082926;28;31678;-69
2021/04/19 03:31:22;;;;;;;34.95;16.95;;;;;;;;;;5081825;28;32183;-71
2021/04/19 03:33:49;;;;;;;37.03;16.50;;;;;;;;;;5084064;28;32148;-70
2021/04/19 03:36:16;;;;;;;35.08;17.52;;;;;;;;;;5082051;28;32262;-71
2021/04/19 03:38:44;;;;;;;48.33;17.90;;;;;;;;;;5084088;28;32634;-71
2021/04/19 03:41:11;;;;;;;35.03;17.10;;;;;;;;;;5082319;28;30476;-75
2021/04/19 03:43:43;;;;;;;34.05;15.80;;;;;;;;;;5082285;28;30434;-76
2021/04/19 03:46:17;;;;;;;23.40;13.10;;;;;;;;;;5082629;28;31219;-75
2021/04/19 03:49:07;;;;;;;23.67;12.70;;;;;;;;;;5082112;28;30933;-75
2021/04/19 03:51:46;;;;;;;26.00;13.27;;;;;;;;;;5083318;28;30857;-75
2021/04/19 03:54:15;;;;;;;27.25;14.10;;;;;;;;;;5083859;28;32379;-75
2021/04/19 03:56:42;;;;;;;19.02;11.82;;;;;;;;;;5084128;28;33667;-75
2021/04/19 03:59:18;;;;;;;21.85;12.38;;;;;;;;;;5082362;28;32217;-76
2021/04/19 04:01:50;;;;;;;27.02;14.57;;;;;;;;;;5082625;28;30483;-75
2021/04/19 04:04:18;;;;;;;22.50;12.75;;;;;;;;;;5082500;28;30556;-75
2021/04/19 04:07:00;;;;;;;20.13;12.18;;;;;;;;;;5083680;28;32528;-76
2021/04/19 04:09:33;;;;;;;21.13;12.65;;;;;;;;;;5083533;28;32460;-75
2021/04/19 04:12:00;;;;;;;23.20;13.68;;;;;;;;;;5081872;28;30469;-76
2021/04/19 04:14:35;;;;;;;27.80;15.20;;;;;;;;;;5083267;28;32097;-74
2021/04/19 04:17:02;;;;;;;23.65;13.27;;;;;;;;;;5083735;28;32585;-75
2021/04/19 04:19:48;;;;;;;22.40;13.57;;;;;;;;;;5083446;28;32903;-75
2021/04/19 04:22:14;;;;;;;23.20;13.77;;;;;;;;;;5081681;28;30629;-70
2021/04/19 04:24:44;;;;;;;24.50;13.35;;;;;;;;;;5083292;28;32004;-70
2021/04/19 04:27:11;;;;;;;25.77;14.43;;;;;;;;;;5080852;28;31318;-71
2021/04/19 04:29:41;;;;;;;28.10;15.38;;;;;;;;;;5081440;28;31922;-72
2021/04/19 04:32:27;;;;;;;28.45;15.77;;;;;;;;;;5088047;28;32301;-71
2021/04/19 04:35:05;;;;;;;27.83;14.52;;;;;;;;;;5081325;28;31593;-71
2021/04/19 04:37:35;;;;;;;29.65;15.27;;;;;;;;;;5081252;28;31224;-71
2021/04/19 04:40:11;;;;;;;32.25;15.13;;;;;;;;;;5080677;28;30646;-71
2021/04/19 04:42:41;;;;;;;30.40;16.08;;;;;;;;;;5081321;28;30828;-70
2021/04/19 04:45:07;;;;;;;31.05;15.70;;;;;;;;;;5082847;28;32253;-71
2021/04/19 04:47:39;;;;;;;30.45;15.88;;;;;;;;;;5082745;28;33122;-71
2021/04/19 04:50:07;;;;;;;33.97;16.08;;;;;;;;;;5082803;28;32351;-71
2021/04/19 04:52:37;;;;;;;29.88;15.75;;;;;;;;;;5082861;28;31980;-69
2021/04/19 04:55:05;;;;;;;32.90;17.27;;;;;;;;;;5082363;28;33046;-71
2021/04/19 04:57:32;;;;;;;43.17;18.38;;;;;;;;;;5082176;28;32590;-71
2021/04/19 04:59:59;;;;;;;40.40;18.08;;;;;;;;;;5082493;28;32288;-70
2021/04/19 05:02:25;;;;;;;40.33;16.95;;;;;;;;;;5082301;28;31999;-71
2021/04/19 05:04:51;;;;;;;42.85;19.10;;;;;;;;;;5082454;28;31971;-71
2021/04/19 05:07:17;;;;;;;41.33;18.92;;;;;;;;;;5082461;28;32491;-71
2021/04/19 05:09:44;;;;;;;42.20;18.52;;;;;;;;;;5081607;28;31627;-71
2021/04/19 05:12:10;;;;;;;48.85;19.80;;;;;;;;;;5082583;28;32258;-71
2021/04/19 05:14:38;;;;;;;53.75;19.92;;;;;;;;;;5081908;28;32000;-71
2021/04/19 05:17:04;;;;;;;44.83;19.48;;;;;;;;;;5082310;28;32652;-71
2021/04/19 05:19:30;;;;;;;52.00;20.02;;;;;;;;;;5082122;28;32346;-73
2021/04/19 05:21:55;;;;;;;55.75;21.88;;;;;;;;;;5082502;28;32944;-73
2021/04/19 05:24:21;;;;;;;55.17;20.33;;;;;;;;;;5082121;28;32132;-73
2021/04/19 05:26:47;;;;;;;47.50;19.67;;;;;;;;;;5081852;28;32544;-73
2021/04/19 05:29:13;;;;;;;52.42;20.13;;;;;;;;;;5081885;28;32444;-74
2021/04/19 05:31:38;;;;;;;54.33;20.92;;;;;;;;;;5081883;28;31965;-73
2021/04/19 05:34:04;;;;;;;54.83;20.00;;;;;;;;;;5081551;28;33028;-75
2021/04/19 05:36:30;;;;;;;57.40;20.92;;;;;;;;;;5079705;28;33481;-72
2021/04/19 05:38:56;;;;;;;51.70;20.55;;;;;;;;;;5081924;28;32231;-73
2021/04/19 05:41:22;;;;;;;49.83;21.23;;;;;;;;;;5083477;28;32950;-71
2021/04/19 05:43:48;;;;;;;45.47;20.27;;;;;;;;;;5081758;28;32915;-72
2021/04/19 05:46:15;;;;;;;61.33;20.00;;;;;;;;;;5081618;28;32631;-72
2021/04/19 05:48:41;;;;;;;51.35;19.33;;;;;;;;;;5081863;28;32875;-76
2021/04/19 05:51:14;;;;;;;53.72;20.15;;;;;;;;;;5081350;28;32975;-76
2021/04/19 05:53:40;;;;;;;55.63;20.67;;;;;;;;;;5081948;28;32755;-77
2021/04/19 05:56:12;;;;;;;55.05;20.88;;;;;;;;;;5081389;28;32496;-77
2021/04/19 05:58:49;;;;;;;44.70;18.15;;;;;;;;;;5080958;28;33022;-77
2021/04/19 06:01:20;;;;;;;43.25;17.45;;;;;;;;;;5081700;28;30777;-76
2021/04/19 06:04:02;;;;;;;51.30;19.27;;;;;;;;;;5079923;28;32276;-75
2021/04/19 06:06:46;;;;;;;49.80;16.90;;;;;;;;;;5078782;28;32550;-76
2021/04/19 06:09:30;;;;;;;44.85;16.63;;;;;;;;;;5080959;28;32537;-76
2021/04/19 06:12:16;;;;;;;46.97;18.15;;;;;;;;;;5078958;28;33495;-76
2021/04/19 06:14:46;;;;;;;46.95;17.40;;;;;;;;;;5080788;28;31746;-76
2021/04/19 06:17:13;;;;;;;42.30;16.48;;;;;;;;;;5081618;28;32665;-76
2021/04/19 06:19:43;;;;;;;47.60;17.30;;;;;;;;;;5081325;28;32364;-76
2021/04/19 06:22:12;;;;;;;46.67;16.15;;;;;;;;;;5081255;28;32248;-78
2021/04/19 06:24:38;;;;;;;53.67;18.83;;;;;;;;;;5081194;28;32047;-77
2021/04/19 06:27:04;;;;;;;51.75;15.82;;;;;;;;;;5081305;28;32675;-76
2021/04/19 06:29:30;;;;;;;36.33;16.15;;;;;;;;;;5081164;28;32404;-71
2021/04/19 06:31:56;;;;;;;40.35;15.77;;;;;;;;;;5080520;28;32301;-71
2021/04/19 06:34:22;;;;;;;43.00;16.38;;;;;;;;;;5081248;28;32054;-72
2021/04/19 06:36:48;;;;;;;42.67;16.15;;;;;;;;;;5080903;28;32621;-72
2021/04/19 06:39:16;;;;;;;41.10;15.15;;;;;;;;;;5081403;28;33325;-72
2021/04/19 06:41:42;;;;;;;39.53;16.80;;;;;;;;;;5080872;28;32044;-73
2021/04/19 06:44:08;;;;;;;43.38;16.20;;;;;;;;;;5080971;28;32211;-73
2021/04/19 06:46:35;;;;;;;42.25;16.08;;;;;;;;;;5080801;28;33234;-70
2021/04/19 06:49:03;;;;;;;45.38;16.42;;;;;;;;;;5080021;28;30481;-71
2021/04/19 06:51:29;;;;;;;42.05;15.60;;;;;;;;;;5080826;28;32099;-76
2021/04/19 06:53:55;;;;;;;34.05;16.30;;;;;;;;;;5080818;28;32017;-71
2021/04/19 06:56:22;;;;;;;37.28;15.88;;;;;;;;;;5080752;28;32657;-72
2021/04/19 06:58:48;;;;;;;45.55;16.70;;;;;;;;;;5081221;28;33207;-72
2021/04/19 07:01:16;;;;;;;48.15;17.48;;;;;;;;;;5080263;28;32058;-74
2021/04/19 07:03:44;;;;;;;42.88;15.90;;;;;;;;;;5080633;28;32182;-71
2021/04/19 07:06:11;;;;;;;47.25;17.52;;;;;;;;;;5079546;28;33171;-71
2021/04/19 07:08:43;;;;;;;44.78;16.30;;;;;;;;;;5080401;28;33222;-72
2021/04/19 07:11:10;;;;;;;43.17;17.35;;;;;;;;;;5080374;28;31981;-78
2021/04/19 07:13:39;;;;;;;37.92;16.75;;;;;;;;;;5079372;28;32077;-76
2021/04/19 07:16:05;;;;;;;40.08;16.70;;;;;;;;;;5080521;28;32508;-74
2021/04/19 07:18:32;;;;;;;40.20;18.27;;;;;;;;;;5079226;28;32215;-76
2021/04/19 07:20:58;;;;;;;48.10;18.08;;;;;;;;;;5080473;28;32055;-75
2021/04/19 07:23:24;;;;;;;45.53;18.63;;;;;;;;;;5080592;28;32539;-74
2021/04/19 07:25:49;;;;;;;41.50;17.23;;;;;;;;;;5088157;28;32189;-76
2021/04/19 07:28:15;;;;;;;46.20;17.70;;;;;;;;;;5096649;28;32484;-75
2021/04/19 07:30:41;;;;;;;44.90;18.38;;;;;;;;;;5088126;28;32499;-74
2021/04/19 07:33:23;;;;;;;46.15;17.65;;;;;;;;;;5082111;28;32142;-71
2021/04/19 07:35:49;;;;;;;38.33;16.40;;;;;;;;;;5082437;28;32460;-73
2021/04/19 07:38:14;;;;;;;39.17;16.83;;;;;;;;;;5080106;28;31968;-73
2021/04/19 07:40:41;;;;;;;43.78;16.88;;;;;;;;;;5080886;28;31885;-75
2021/04/19 07:43:11;;;;;;;47.03;16.83;;;;;;;;;;5081903;28;33142;-76
2021/04/19 07:45:41;;;;;;;42.53;16.67;;;;;;;;;;5079622;28;31995;-73
2021/04/19 07:48:26;;;;;;;44.78;16.95;;;;;;;;;;5080331;28;32799;-75
2021/04/19 07:50:52;;;;;;;46.30;17.63;;;;;;;;;;5080618;28;33011;-75
2021/04/19 07:53:18;;;;;;;35.47;14.85;;;;;;;;;;5080705;28;32245;-73
2021/04/19 07:55:44;;;;;;;35.28;15.07;;;;;;;;;;5080143;28;33123;-74
2021/04/19 07:58:18;;;;;;;39.72;15.00;;;;;;;;;;5080587;28;32427;-77
2021/04/19 08:00:44;;;;;;;;;;;;;;;;;;5081553;28;32016;-78
2021/04/19 08:03:14;;;;;;;40.60;14.40;;;;;;;;;;5080326;28;33281;-72
2021/04/19 08:05:40;;;;;;;40.00;15.55;;;;;;;;;;5080350;28;32693;-77
2021/04/19 08:08:06;;;;;;;42.55;14.20;;;;;;;;;;5080238;28;33156;-73
2021/04/19 08:10:32;;;;;;;38.58;15.25;;;;;;;;;;5079773;28;32950;-79
2021/04/19 08:13:19;;;;;;;38.33;14.85;;;;;;;;;;5080645;28;32053;-77
2021/04/19 08:15:46;;;;;;;34.42;13.85;;;;;;;;;;5080365;28;41540;-82
2021/04/19 08:18:11;;;;;;;32.83;14.20;;;;;;;;;;5083325;28;32237;-82
2021/04/19 08:20:38;;;;;;;30.88;14.07;;;;;;;;;;5083330;28;31871;-74
2021/04/19 08:23:12;;;;;;;39.45;14.52;;;;;;;;;;5083087;28;32936;-79
2021/04/19 08:25:39;;;;;;;39.08;16.13;;;;;;;;;;5064925;28;31390;-71
2021/04/19 08:28:07;;;;;;;37.38;13.07;;;;;;;;;;5083299;28;32200;-75
2021/04/19 08:30:33;;;;;;;33.38;13.57;;;;;;;;;;5083440;28;32012;-72
2021/04/19 08:32:59;;;;;;;39.65;14.23;;;;;;;;;;5082927;28;32074;-75
2021/04/19 08:35:26;;;;;;;30.83;11.77;;;;;;;;;;5084209;28;32551;-75
2021/04/19 08:37:56;;;;;;;23.38;8.73;;;;;;;;;;5084311;28;32261;-77
2021/04/19 08:40:23;;;;;;;23.75;11.18;;;;;;;;;;5082971;28;31863;-78
2021/04/19 08:42:48;;;;;;;28.52;11.27;;;;;;;;;;5083181;28;32016;-73
2021/04/19 08:45:14;;;;;;;25.75;10.95;;;;;;;;;;5083103;28;33592;-72
2021/04/19 08:47:40;;;;;;;28.90;11.65;;;;;;;;;;5083095;28;43485;-78
2021/04/19 08:50:07;;;;;;;22.48;10.38;;;;;;;;;;5082824;28;31987;-76
2021/04/19 08:52:34;;;;;;;27.08;11.18;;;;;;;;;;5082896;28;32051;-77
2021/04/19 08:55:00;;;;;;;30.13;11.45;;;;;;;;;;5082637;28;33489;-75
2021/04/19 08:57:26;;;;;;;26.92;12.10;;;;;;;;;;5084772;28;32352;-77
2021/04/19 08:59:53;;;;;;;30.80;11.00;;;;;;;;;;5083228;28;32913;-77
2021/04/19 09:02:19;;;;;;;34.05;11.05;;;;;;;;;;5083219;28;32139;-70
2021/04/19 09:05:03;;;;;;;31.67;11.60;;;;;;;;;;5083534;28;32475;-71
2021/04/19 09:07:32;;;;;;;28.15;11.75;;;;;;;;;;5082676;28;32378;-76
2021/04/19 09:09:58;;;;;;;23.15;8.70;;;;;;;;;;5082699;28;33008;-77
2021/04/19 09:12:25;;;;;;;32.97;11.38;;;;;;;;;;5082874;28;32004;-75
2021/04/19 09:15:09;;;;;;;35.55;13.48;;;;;;;;;;5082233;28;33601;-72
2021/04/19 09:17:38;;;;;;;34.40;14.25;;;;;;;;;;5079831;28;32261;-70
2021/04/19 09:20:04;;;;;;;29.90;12.63;;;;;;;;;;5082404;28;32301;-74
2021/04/19 09:22:29;;;;;;;16.48;8.18;;;;;;;;;;5082890;28;32894;-76
2021/04/19 09:24:56;;;;;;;25.95;9.77;;;;;;;;;;5082366;28;33250;-73
2021/04/19 09:27:40;;;;;;;18.67;7.05;;;;;;;;;;5082167;28;32179;-72
2021/04/19 09:30:32;;;;;;;27.65;10.52;;;;;;;;;;5080749;28;32245;-76
2021/04/19 09:33:07;;;;;;;30.02;10.57;;;;;;;;;;5079269;28;31934;-77
2021/04/19 09:35:38;;;;;;;26.85;11.95;;;;;;;;;;5081699;28;32874;-77
2021/04/19 09:38:04;;;;;;;28.40;12.23;;;;;;;;;;5079069;28;33292;-72
2021/04/19 09:40:30;;;;;;;32.75;11.50;;;;;;;;;;5082024;28;31947;-72
2021/04/19 09:43:05;;;;;;;32.10;11.27;;;;;;;;;;5082050;28;32957;-79
2021/04/19 09:45:44;;;;;;;29.95;13.43;;;;;;;;;;5079169;28;33625;-72
2021/04/19 09:48:28;;;;;;;29.92;11.98;;;;;;;;;;5081960;28;32231;-79
2021/04/19 09:50:54;;;;;;;32.15;11.88;;;;;;;;;;5081999;28;31723;-78
2021/04/19 09:53:20;;;;;;;28.92;11.10;;;;;;;;;;5081621;28;31965;-76
2021/04/19 09:55:45;;;;;;;22.80;9.63;;;;;;;;;;5081653;28;32530;-72
2021/04/19 09:58:11;;;;;;;23.90;10.02;;;;;;;;;;5081499;28;33247;-77
2021/04/19 10:00:37;;;;;;;25.67;11.55;;;;;;;;;;5079886;28;30705;-74
2021/04/19 10:03:03;;;;;;;25.42;11.00;;;;;;;;;;5081663;28;32978;-74
2021/04/19 10:05:29;;;;;;;32.70;11.13;;;;;;;;;;5081690;28;32831;-74
2021/04/19 10:07:57;;;;;;;22.88;10.07;;;;;;;;;;5081313;28;32317;-76
2021/04/19 10:10:23;;;;;;;21.73;10.57;;;;;;;;;;5081943;28;32022;-72
2021/04/19 10:12:49;;;;;;;28.63;10.48;;;;;;;;;;5081367;28;32189;-74
2021/04/19 10:15:15;;;;;;;24.02;10.25;;;;;;;;;;5078698;28;32616;-74
2021/04/19 10:17:41;;;;;;;29.27;10.48;;;;;;;;;;5081115;28;32310;-72
2021/04/19 10:20:14;;;;;;;19.17;9.23;;;;;;;;;;5081471;28;32543;-75
2021/04/19 10:22:40;;;;;;;23.05;10.48;;;;;;;;;;5081379;28;31991;-78
2021/04/19 10:25:06;;;;;;;25.35;9.18;;;;;;;;;;5081399;28;33195;-72
2021/04/19 10:27:32;;;;;;;18.08;6.78;;;;;;;;;;5081647;28;32360;-74
2021/04/19 10:30:12;;;;;;;24.52;9.38;;;;;;;;;;5081860;28;32079;-71
2021/04/19 10:32:38;;;;;;;26.75;10.10;;;;;;;;;;5081810;28;31916;-72
2021/04/19 10:35:04;;;;;;;22.30;8.80;;;;;;;;;;5080886;28;31973;-75
2021/04/19 10:37:29;;;;;;;21.58;9.32;;;;;;;;;;5080063;28;32405;-71
2021/04/19 10:39:56;;;;;;;21.77;9.85;;;;;;;;;;5081068;28;31949;-73
2021/04/19 10:42:23;;;;;;;22.60;8.43;;;;;;;;;;5079934;28;30338;-74
2021/04/19 10:44:49;;;;;;;22.67;9.27;;;;;;;;;;5080793;28;32657;-73
2021/04/19 10:47:26;;;;;;;16.67;7.05;;;;;;;;;;5081220;28;32327;-72
2021/04/19 10:49:51;;;;;;;26.88;8.57;;;;;;;;;;5080170;28;31786;-73
2021/04/19 10:52:17;;;;;;;24.75;10.18;;;;;;;;;;5080567;28;32196;-76
2021/04/19 10:54:44;;;;;;;21.90;8.90;;;;;;;;;;5080834;28;32409;-76
2021/04/19 10:57:25;;;;;;;16.08;7.80;;;;;;;;;;5081010;28;32364;-82
2021/04/19 10:59:55;;;;;;;19.23;7.80;;;;;;;;;;5080610;28;32989;-79
2021/04/19 11:02:24;;;;;;;18.38;7.63;;;;;;;;;;5080716;28;32091;-77
2021/04/19 11:04:50;;;;;;;22.08;8.13;;;;;;;;;;5080833;28;32473;-74
2021/04/19 11:07:23;;;;;;;17.58;8.55;;;;;;;;;;5080616;28;33327;-72
2021/04/19 11:10:27;;;;;;;16.93;7.33;;;;;;;;;;5080823;28;31984;-71
2021/04/19 11:12:57;;;;;;;16.50;8.85;;;;;;;;;;5077733;28;32054;-71
2021/04/19 11:15:27;;;;;;;15.25;6.35;;;;;;;;;;5077459;28;33670;-71
2021/04/19 11:17:53;;;;;;;16.70;8.35;;;;;;;;;;5079296;28;32881;-72
2021/04/19 11:20:22;;;;;;;25.50;8.13;;;;;;;;;;5080479;28;32016;-72
2021/04/19 11:22:49;;;;;;;16.42;5.85;;;;;;;;;;5077743;28;32093;-71
2021/04/19 11:25:17;;;;;;;19.90;9.10;;;;;;;;;;5080275;28;33554;-73
2021/04/19 11:27:44;;;;;;;24.05;9.18;;;;;;;;;;5079356;28;32437;-72
2021/04/19 11:30:27;;;;;;;21.40;8.45;;;;;;;;;;5080186;28;32069;-72
2021/04/19 11:33:07;;;;;;;20.40;7.93;;;;;;;;;;5080301;28;32139;-73
2021/04/19 11:35:34;;;;;;;15.95;5.53;;;;;;;;;;5080329;28;32524;-73
2021/04/19 11:38:01;;;;;;;17.77;6.40;;;;;;;;;;5080261;28;32309;-71
2021/04/19 11:40:52;;;;;;;23.85;9.13;;;;;;;;;;5080197;28;31915;-71
2021/04/19 11:43:23;;;;;;;19.70;8.02;;;;;;;;;;5079230;28;33072;-71
2021/04/19 11:45:55;;;;;;;24.20;7.82;;;;;;;;;;5079690;28;33448;-71
2021/04/19 11:48:20;;;;;;;10.65;4.82;;;;;;;;;;5081395;28;32148;-71
2021/04/19 11:50:46;;;;;;;20.17;7.97;;;;;;;;;;5083346;28;32095;-72
2021/04/19 11:53:18;;;;;;;15.23;7.45;;;;;;;;;;5083305;28;31923;-72
2021/04/19 11:55:45;;;;;;;11.15;6.65;;;;;;;;;;5083716;28;31924;-72
2021/04/19 11:58:10;;;;;;;20.48;7.75;;;;;;;;;;5082325;28;32004;-72
2021/04/19 12:00:36;;;;;;;12.85;6.45;;;;;;;;;;5083075;28;32029;-72
2021/04/19 12:03:02;;;;;;;15.88;7.93;;;;;;;;;;5083713;28;32692;-72
2021/04/19 12:05:27;;;;;;;20.52;9.15;;;;;;;;;;5083039;28;32748;-72
2021/04/19 12:07:53;;;;;;;19.88;8.93;;;;;;;;;;5083330;28;32895;-73
2021/04/19 12:10:19;;;;;;;17.52;9.63;;;;;;;;;;5083265;28;31929;-73
2021/04/19 12:12:46;;;;;;;18.33;8.60;;;;;;;;;;5083504;28;31807;-81
2021/04/19 12:15:12;;;;;;;17.15;8.38;;;;;;;;;;5082099;28;31341;-81
2021/04/19 12:17:38;;;;;;;19.77;9.43;;;;;;;;;;5083792;28;32330;-72
2021/04/19 12:20:04;;;;;;;17.67;9.55;;;;;;;;;;5083201;28;32864;-72
2021/04/19 12:22:29;;;;;;;26.73;10.50;;;;;;;;;;5083029;28;31953;-71
2021/04/19 12:24:56;;;;;;;27.90;9.25;;;;;;;;;;5083085;28;33157;-72
2021/04/19 12:27:22;;;;;;;28.70;12.35;;;;;;;;;;5082674;28;32293;-77
2021/04/19 12:29:48;;;;;;;23.80;10.75;;;;;;;;;;5082697;28;32069;-74
2021/04/19 12:32:14;;;;;;;23.20;11.32;;;;;;;;;;5083103;28;32190;-77
2021/04/19 12:34:40;;;;;;;26.85;11.55;;;;;;;;;;5081296;28;31375;-73
2021/04/19 12:37:06;;;;;;;27.85;12.40;;;;;;;;;;5082791;28;32293;-73
2021/04/19 12:39:32;;;;;;;33.28;13.43;;;;;;;;;;5083047;28;31965;-76
2021/04/19 12:41:58;;;;;;;26.77;13.57;;;;;;;;;;5081909;28;30808;-72
2021/04/19 12:44:24;;;;;;;21.45;10.55;;;;;;;;;;5082978;28;32467;-79
2021/04/19 12:46:52;;;;;;;21.38;10.63;;;;;;;;;;5083335;28;32803;-77
2021/04/19 12:49:20;;;;;;;22.30;11.77;;;;;;;;;;5082236;28;31952;-75
2021/04/19 12:51:46;;;;;;;32.22;11.32;;;;;;;;;;5081413;28;33185;-74
2021/04/19 12:54:12;;;;;;;27.38;11.48;;;;;;;;;;5082679;28;32435;-74
2021/04/19 12:56:38;;;;;;;25.85;11.35;;;;;;;;;;5082617;28;32388;-80
2021/04/19 12:59:04;;;;;;;24.75;11.88;;;;;;;;;;5082103;28;33015;-75
2021/04/19 13:01:30;;;;;;;24.67;10.98;;;;;;;;;;5082484;28;32118;-80
2021/04/19 13:03:55;;;;;;;23.00;12.32;;;;;;;;;;5082575;28;33158;-71
2021/04/19 13:06:21;;;;;;;24.77;11.90;;;;;;;;;;5082220;28;32474;-71
2021/04/19 13:08:47;;;;;;;27.67;12.77;;;;;;;;;;5082436;28;32081;-71
2021/04/19 13:11:12;;;;;;;20.80;10.50;;;;;;;;;;5082516;28;32058;-72
2021/04/19 13:13:38;;;;;;;20.23;11.27;;;;;;;;;;5082033;28;32460;-71
2021/04/19 13:16:04;;;;;;;19.83;9.82;;;;;;;;;;5082377;28;32674;-73
2021/04/19 13:18:30;;;;;;;19.90;12.07;;;;;;;;;;5080640;28;31418;-74
2021/04/19 13:20:55;;;;;;;21.77;11.30;;;;;;;;;;5082613;28;31825;-72
2021/04/19 13:23:21;;;;;;;25.20;12.40;;;;;;;;;;5082710;28;32676;-74
2021/04/19 13:25:47;;;;;;;21.10;11.57;;;;;;;;;;5082092;28;32919;-74
2021/04/19 13:28:13;;;;;;;21.30;11.13;;;;;;;;;;5081918;28;31759;-74
2021/04/19 13:30:38;;;;;;;22.30;11.20;;;;;;;;;;5080878;28;30426;-71
2021/04/19 13:33:04;;;;;;;22.58;10.63;;;;;;;;;;5082200;28;32524;-72
2021/04/19 13:35:30;;;;;;;26.55;11.90;;;;;;;;;;5081730;28;32855;-74
2021/04/19 13:37:57;;;;;;;22.45;11.77;;;;;;;;;;5082699;28;32100;-71
2021/04/19 13:40:23;;;;;;;21.20;10.75;;;;;;;;;;5082119;28;32412;-75
2021/04/19 13:42:49;;;;;;;22.77;10.82;;;;;;;;;;5081934;28;32481;-80
2021/04/19 13:45:16;;;;;;;21.23;10.43;;;;;;;;;;5082436;28;32257;-73
2021/04/19 13:47:43;;;;;;;25.63;10.43;;;;;;;;;;5081578;28;31940;-74
2021/04/19 13:50:08;;;;;;;25.17;10.20;;;;;;;;;;5081853;28;32996;-71
2021/04/19 13:52:35;;;;;;;21.20;10.40;;;;;;;;;;5081906;28;32548;-72
2021/04/19 13:55:02;;;;;;;22.58;9.32;;;;;;;;;;5081869;28;32288;-73
2021/04/19 13:57:27;;;;;;;31.85;10.07;;;;;;;;;;5081828;28;32875;-70
2021/04/19 13:59:53;;;;;;;19.40;10.70;;;;;;;;;;5081967;28;32052;-75
2021/04/19 14:02:19;;;;;;;23.30;9.98;;;;;;;;;;5082074;28;33548;-75
2021/04/19 14:04:45;;;;;;;25.75;11.02;;;;;;;;;;5080215;28;33116;-75
2021/04/19 14:07:11;;;;;;;19.75;9.80;;;;;;;;;;5081416;28;32072;-72
2021/04/19 14:09:37;;;;;;;20.10;10.18;;;;;;;;;;5081250;28;33208;-75
2021/04/19 14:12:03;;;;;;;22.92;10.10;;;;;;;;;;5078580;28;32480;-76
2021/04/19 14:14:29;;;;;;;20.25;9.57;;;;;;;;;;5081384;28;33146;-73
2021/04/19 14:16:55;;;;;;;21.48;10.23;;;;;;;;;;5079862;28;30530;-72
2021/04/19 14:19:21;;;;;;;20.80;9.90;;;;;;;;;;5081315;28;32964;-72
2021/04/19 14:21:46;;;;;;;21.80;9.90;;;;;;;;;;5078591;28;32441;-73
2021/04/19 14:24:12;;;;;;;26.65;11.40;;;;;;;;;;5081435;28;32431;-73
2021/04/19 14:26:38;;;;;;;23.65;10.95;;;;;;;;;;5080879;28;31995;-73